Neola, Iowa
Current Conditions -  °F | °C
As of 2:35 AM on Sunday 23 Nov 2014 (Local Time) from KCBF Reporting Station
Overcast Overcast  
Wind Chill: 54°   Ceiling: 1400
Heat Index: 54°   Visibility: 7mi
Dew Point: 54°   Wind: 16mph
Humidity: 100%   Direction: 190°S
Pressure: 29.51"   Gusts: NA
Location:  41.45°N, 95.62°W
Report Text: KCBF 230835Z AUTO 19014KT 7SM OVC014 12/12 A2951 RMK AO2
Loading
Personal Weather Stations






























Interactive Weather Map New forecast layout! Learn more

10-Day Weather Forecast

Advertisements
Track Severe Weather on mobile